sensor_id;sensor_type;location;lat;lon;timestamp;temperature;humidity
13606;DHT22;6874;52.084;5.090;2023-03-23T00:00:28;11.40;99.90
13606;DHT22;6874;52.084;5.090;2023-03-23T00:02:54;11.30;99.90
13606;DHT22;6874;52.084;5.090;2023-03-23T00:05:20;11.30;99.90
13606;DHT22;6874;52.084;5.090;2023-03-23T00:07:45;11.40;99.90
13606;DHT22;6874;52.084;5.090;2023-03-23T00:10:11;11.40;99.90
13606;DHT22;6874;52.084;5.090;2023-03-23T00:12:37;11.40;99.90
13606;DHT22;6874;52.084;5.090;2023-03-23T00:15:04;11.40;99.90
13606;DHT22;6874;52.084;5.090;2023-03-23T00:17:31;11.40;99.90
13606;DHT22;6874;52.084;5.090;2023-03-23T00:19:59;11.40;99.90
13606;DHT22;6874;52.084;5.090;2023-03-23T00:22:26;11.40;99.90
13606;DHT22;6874;52.084;5.090;2023-03-23T00:24:52;11.40;99.90
13606;DHT22;6874;52.084;5.090;2023-03-23T00:27:18;11.30;99.90
13606;DHT22;6874;52.084;5.090;2023-03-23T00:29:44;11.40;99.90
13606;DHT22;6874;52.084;5.090;2023-03-23T00:32:12;11.40;99.90
13606;DHT22;6874;52.084;5.090;2023-03-23T00:34:42;11.40;99.90
13606;DHT22;6874;52.084;5.090;2023-03-23T00:37:09;11.40;99.90
13606;DHT22;6874;52.084;5.090;2023-03-23T00:39:37;11.40;99.90
13606;DHT22;6874;52.084;5.090;2023-03-23T00:42:03;11.40;99.90
13606;DHT22;6874;52.084;5.090;2023-03-23T00:44:31;11.40;99.90
13606;DHT22;6874;52.084;5.090;2023-03-23T00:46:57;11.40;99.90
13606;DHT22;6874;52.084;5.090;2023-03-23T00:49:25;11.40;99.90
13606;DHT22;6874;52.084;5.090;2023-03-23T00:51:51;11.40;99.90
13606;DHT22;6874;52.084;5.090;2023-03-23T00:54:17;11.40;99.90
13606;DHT22;6874;52.084;5.090;2023-03-23T00:56:43;11.40;99.90
13606;DHT22;6874;52.084;5.090;2023-03-23T00:59:08;11.30;99.90
13606;DHT22;6874;52.084;5.090;2023-03-23T01:01:35;11.40;99.90
13606;DHT22;6874;52.084;5.090;2023-03-23T01:04:02;11.40;99.90
13606;DHT22;6874;52.084;5.090;2023-03-23T01:06:34;11.30;99.90
13606;DHT22;6874;52.084;5.090;2023-03-23T01:09:00;11.40;99.90
13606;DHT22;6874;52.084;5.090;2023-03-23T01:11:26;11.40;99.90
13606;DHT22;6874;52.084;5.090;2023-03-23T01:13:52;11.40;99.90
13606;DHT22;6874;52.084;5.090;2023-03-23T01:16:18;11.40;99.90
13606;DHT22;6874;52.084;5.090;2023-03-23T01:18:43;11.40;99.90
13606;DHT22;6874;52.084;5.090;2023-03-23T01:21:15;11.40;99.90
13606;DHT22;6874;52.084;5.090;2023-03-23T01:23:41;11.40;99.90
13606;DHT22;6874;52.084;5.090;2023-03-23T01:26:09;11.40;99.90
13606;DHT22;6874;52.084;5.090;2023-03-23T01:28:36;11.40;99.90
13606;DHT22;6874;52.084;5.090;2023-03-23T01:31:07;11.40;99.90
13606;DHT22;6874;52.084;5.090;2023-03-23T01:33:33;11.40;99.90
13606;DHT22;6874;52.084;5.090;2023-03-23T01:36:08;11.40;99.90
13606;DHT22;6874;52.084;5.090;2023-03-23T01:38:35;11.40;99.90
13606;DHT22;6874;52.084;5.090;2023-03-23T01:41:01;11.40;99.90
13606;DHT22;6874;52.084;5.090;2023-03-23T01:43:27;11.40;99.90
13606;DHT22;6874;52.084;5.090;2023-03-23T01:45:53;11.40;99.90
13606;DHT22;6874;52.084;5.090;2023-03-23T01:48:26;11.40;99.90
13606;DHT22;6874;52.084;5.090;2023-03-23T01:51:03;11.40;99.90
13606;DHT22;6874;52.084;5.090;2023-03-23T01:53:34;11.40;99.90
13606;DHT22;6874;52.084;5.090;2023-03-23T01:56:03;11.40;99.90
13606;DHT22;6874;52.084;5.090;2023-03-23T01:58:31;11.40;99.90
13606;DHT22;6874;52.084;5.090;2023-03-23T02:01:01;11.40;99.90
13606;DHT22;6874;52.084;5.090;2023-03-23T02:03:28;11.40;99.90
13606;DHT22;6874;52.084;5.090;2023-03-23T02:05:57;11.30;99.90
13606;DHT22;6874;52.084;5.090;2023-03-23T02:08:26;11.40;99.90
13606;DHT22;6874;52.084;5.090;2023-03-23T02:10:53;11.40;99.90
13606;DHT22;6874;52.084;5.090;2023-03-23T02:13:19;11.40;99.90
13606;DHT22;6874;52.084;5.090;2023-03-23T02:19:02;11.40;99.90
13606;DHT22;6874;52.084;5.090;2023-03-23T02:22:10;11.40;99.90
13606;DHT22;6874;52.084;5.090;2023-03-23T02:27:28;11.40;99.90
13606;DHT22;6874;52.084;5.090;2023-03-23T02:36:03;11.40;99.90
13606;DHT22;6874;52.084;5.090;2023-03-23T02:38:35;11.40;99.90
13606;DHT22;6874;52.084;5.090;2023-03-23T02:41:03;11.40;99.90
13606;DHT22;6874;52.084;5.090;2023-03-23T02:43:34;11.40;99.90
13606;DHT22;6874;52.084;5.090;2023-03-23T02:46:05;11.40;99.90
13606;DHT22;6874;52.084;5.090;2023-03-23T02:48:33;11.40;99.90
13606;DHT22;6874;52.084;5.090;2023-03-23T02:51:00;11.40;99.90
13606;DHT22;6874;52.084;5.090;2023-03-23T02:53:28;11.40;99.90
13606;DHT22;6874;52.084;5.090;2023-03-23T02:55:55;11.40;99.90
13606;DHT22;6874;52.084;5.090;2023-03-23T02:58:22;11.40;99.90
13606;DHT22;6874;52.084;5.090;2023-03-23T03:00:51;11.40;99.90
13606;DHT22;6874;52.084;5.090;2023-03-23T03:03:20;11.40;99.90
13606;DHT22;6874;52.084;5.090;2023-03-23T03:06:10;11.40;99.90
13606;DHT22;6874;52.084;5.090;2023-03-23T03:08:46;11.50;99.90
13606;DHT22;6874;52.084;5.090;2023-03-23T03:11:18;11.40;99.90
13606;DHT22;6874;52.084;5.090;2023-03-23T03:16:33;11.40;99.90
13606;DHT22;6874;52.084;5.090;2023-03-23T03:19:08;11.50;99.90
13606;DHT22;6874;52.084;5.090;2023-03-23T03:21:40;11.50;99.90
13606;DHT22;6874;52.084;5.090;2023-03-23T03:24:08;11.40;99.90
13606;DHT22;6874;52.084;5.090;2023-03-23T03:26:39;11.50;99.90
13606;DHT22;6874;52.084;5.090;2023-03-23T03:29:07;11.50;99.90
13606;DHT22;6874;52.084;5.090;2023-03-23T03:31:36;11.50;99.90
13606;DHT22;6874;52.084;5.090;2023-03-23T03:34:04;11.50;99.90
13606;DHT22;6874;52.084;5.090;2023-03-23T03:36:33;11.50;99.90
13606;DHT22;6874;52.084;5.090;2023-03-23T03:39:07;11.50;99.90
13606;DHT22;6874;52.084;5.090;2023-03-23T03:41:37;11.50;99.90
13606;DHT22;6874;52.084;5.090;2023-03-23T03:44:04;11.50;99.90
13606;DHT22;6874;52.084;5.090;2023-03-23T03:46:31;11.50;99.90
13606;DHT22;6874;52.084;5.090;2023-03-23T03:48:59;11.50;99.90
13606;DHT22;6874;52.084;5.090;2023-03-23T03:51:26;11.50;99.90
13606;DHT22;6874;52.084;5.090;2023-03-23T03:53:52;11.50;99.90
13606;DHT22;6874;52.084;5.090;2023-03-23T03:56:18;11.50;99.90
13606;DHT22;6874;52.084;5.090;2023-03-23T03:58:45;11.50;99.90
13606;DHT22;6874;52.084;5.090;2023-03-23T04:01:11;11.50;99.90
13606;DHT22;6874;52.084;5.090;2023-03-23T04:03:37;11.50;99.90
13606;DHT22;6874;52.084;5.090;2023-03-23T04:06:04;11.50;99.90
13606;DHT22;6874;52.084;5.090;2023-03-23T04:08:30;11.50;99.90
13606;DHT22;6874;52.084;5.090;2023-03-23T04:10:57;11.50;99.90
13606;DHT22;6874;52.084;5.090;2023-03-23T04:13:22;11.50;99.90
13606;DHT22;6874;52.084;5.090;2023-03-23T04:15:48;11.50;99.90
13606;DHT22;6874;52.084;5.090;2023-03-23T04:18:15;11.50;99.90
13606;DHT22;6874;52.084;5.090;2023-03-23T04:20:44;11.50;99.90
13606;DHT22;6874;52.084;5.090;2023-03-23T04:23:13;11.50;99.90
13606;DHT22;6874;52.084;5.090;2023-03-23T04:25:38;11.50;99.90
13606;DHT22;6874;52.084;5.090;2023-03-23T04:28:06;11.50;99.90
13606;DHT22;6874;52.084;5.090;2023-03-23T04:30:32;11.50;99.90
13606;DHT22;6874;52.084;5.090;2023-03-23T04:32:58;11.50;99.90
13606;DHT22;6874;52.084;5.090;2023-03-23T04:35:25;11.50;99.90
13606;DHT22;6874;52.084;5.090;2023-03-23T04:37:52;11.50;99.90
13606;DHT22;6874;52.084;5.090;2023-03-23T04:40:18;11.50;99.90
13606;DHT22;6874;52.084;5.090;2023-03-23T04:42:45;11.50;99.90
13606;DHT22;6874;52.084;5.090;2023-03-23T04:45:17;11.50;99.90
13606;DHT22;6874;52.084;5.090;2023-03-23T04:47:47;11.50;99.90
13606;DHT22;6874;52.084;5.090;2023-03-23T04:50:20;11.50;99.90
13606;DHT22;6874;52.084;5.090;2023-03-23T04:52:49;11.50;99.90
13606;DHT22;6874;52.084;5.090;2023-03-23T04:55:17;11.50;99.90
13606;DHT22;6874;52.084;5.090;2023-03-23T04:57:43;11.50;99.90
13606;DHT22;6874;52.084;5.090;2023-03-23T05:00:10;11.50;99.90
13606;DHT22;6874;52.084;5.090;2023-03-23T05:02:43;11.50;99.90
13606;DHT22;6874;52.084;5.090;2023-03-23T05:05:10;11.50;99.90
13606;DHT22;6874;52.084;5.090;2023-03-23T05:07:38;11.50;99.90
13606;DHT22;6874;52.084;5.090;2023-03-23T05:10:05;11.50;99.90
13606;DHT22;6874;52.084;5.090;2023-03-23T05:12:31;11.50;99.90
13606;DHT22;6874;52.084;5.090;2023-03-23T05:14:57;11.50;99.90
13606;DHT22;6874;52.084;5.090;2023-03-23T05:17:23;11.50;99.90
13606;DHT22;6874;52.084;5.090;2023-03-23T05:19:52;11.50;99.90
13606;DHT22;6874;52.084;5.090;2023-03-23T05:22:19;11.50;99.90
13606;DHT22;6874;52.084;5.090;2023-03-23T05:24:47;11.50;99.90
13606;DHT22;6874;52.084;5.090;2023-03-23T05:27:13;11.50;99.90
13606;DHT22;6874;52.084;5.090;2023-03-23T05:29:40;11.40;99.90
13606;DHT22;6874;52.084;5.090;2023-03-23T05:32:07;11.40;99.90
13606;DHT22;6874;52.084;5.090;2023-03-23T05:34:34;11.40;99.90
13606;DHT22;6874;52.084;5.090;2023-03-23T05:37:00;11.40;99.90
13606;DHT22;6874;52.084;5.090;2023-03-23T05:39:27;11.40;99.90
13606;DHT22;6874;52.084;5.090;2023-03-23T05:41:54;11.40;99.90
13606;DHT22;6874;52.084;5.090;2023-03-23T05:44:20;11.40;99.90
13606;DHT22;6874;52.084;5.090;2023-03-23T05:46:46;11.40;99.90
13606;DHT22;6874;52.084;5.090;2023-03-23T05:49:12;11.40;99.90
13606;DHT22;6874;52.084;5.090;2023-03-23T05:51:39;11.30;99.90
13606;DHT22;6874;52.084;5.090;2023-03-23T05:54:05;11.40;99.90
13606;DHT22;6874;52.084;5.090;2023-03-23T05:56:30;11.30;99.90
13606;DHT22;6874;52.084;5.090;2023-03-23T05:58:56;11.30;99.90
13606;DHT22;6874;52.084;5.090;2023-03-23T06:01:23;11.30;99.90
13606;DHT22;6874;52.084;5.090;2023-03-23T06:03:49;11.30;99.90
13606;DHT22;6874;52.084;5.090;2023-03-23T06:06:19;11.30;99.90
13606;DHT22;6874;52.084;5.090;2023-03-23T06:08:45;11.20;99.90
13606;DHT22;6874;52.084;5.090;2023-03-23T06:11:11;11.30;99.90
13606;DHT22;6874;52.084;5.090;2023-03-23T06:13:37;11.20;99.90
13606;DHT22;6874;52.084;5.090;2023-03-23T06:16:03;11.20;99.90
13606;DHT22;6874;52.084;5.090;2023-03-23T06:18:29;11.20;99.90
13606;DHT22;6874;52.084;5.090;2023-03-23T06:20:59;11.20;99.90
13606;DHT22;6874;52.084;5.090;2023-03-23T06:23:26;11.20;99.90
13606;DHT22;6874;52.084;5.090;2023-03-23T06:25:58;11.10;99.90
13606;DHT22;6874;52.084;5.090;2023-03-23T06:28:24;11.10;99.90
13606;DHT22;6874;52.084;5.090;2023-03-23T06:30:50;11.10;99.90
13606;DHT22;6874;52.084;5.090;2023-03-23T06:33:18;11.10;99.90
13606;DHT22;6874;52.084;5.090;2023-03-23T06:35:43;11.10;99.90
13606;DHT22;6874;52.084;5.090;2023-03-23T06:38:10;11.10;99.90
13606;DHT22;6874;52.084;5.090;2023-03-23T06:40:37;11.10;99.90
13606;DHT22;6874;52.084;5.090;2023-03-23T06:43:06;11.10;99.90
13606;DHT22;6874;52.084;5.090;2023-03-23T06:45:32;11.10;99.90
13606;DHT22;6874;52.084;5.090;2023-03-23T06:47:58;11.10;99.90
13606;DHT22;6874;52.084;5.090;2023-03-23T06:50:23;11.10;99.90
13606;DHT22;6874;52.084;5.090;2023-03-23T06:52:50;11.10;99.90
13606;DHT22;6874;52.084;5.090;2023-03-23T06:55:17;11.10;99.90
13606;DHT22;6874;52.084;5.090;2023-03-23T06:57:44;11.10;99.90
13606;DHT22;6874;52.084;5.090;2023-03-23T07:00:12;11.10;99.90
13606;DHT22;6874;52.084;5.090;2023-03-23T07:02:42;11.10;99.90
13606;DHT22;6874;52.084;5.090;2023-03-23T07:05:10;11.00;99.90
13606;DHT22;6874;52.084;5.090;2023-03-23T07:07:37;11.10;99.90
13606;DHT22;6874;52.084;5.090;2023-03-23T07:10:06;11.10;99.90
13606;DHT22;6874;52.084;5.090;2023-03-23T07:12:32;11.00;99.90
13606;DHT22;6874;52.084;5.090;2023-03-23T07:14:58;11.20;99.90
13606;DHT22;6874;52.084;5.090;2023-03-23T07:17:24;11.00;99.90
13606;DHT22;6874;52.084;5.090;2023-03-23T07:19:50;10.90;99.90
13606;DHT22;6874;52.084;5.090;2023-03-23T07:22:16;11.10;99.90
13606;DHT22;6874;52.084;5.090;2023-03-23T07:24:41;11.00;99.90
13606;DHT22;6874;52.084;5.090;2023-03-23T07:27:07;11.00;99.90
13606;DHT22;6874;52.084;5.090;2023-03-23T07:29:33;11.00;99.90
13606;DHT22;6874;52.084;5.090;2023-03-23T07:32:01;11.00;99.90
13606;DHT22;6874;52.084;5.090;2023-03-23T07:34:27;11.10;99.90
13606;DHT22;6874;52.084;5.090;2023-03-23T07:36:53;11.10;99.90
13606;DHT22;6874;52.084;5.090;2023-03-23T07:39:21;11.00;99.90
13606;DHT22;6874;52.084;5.090;2023-03-23T07:41:54;11.10;99.90
13606;DHT22;6874;52.084;5.090;2023-03-23T07:44:20;11.20;99.90
13606;DHT22;6874;52.084;5.090;2023-03-23T07:46:46;11.20;99.90
13606;DHT22;6874;52.084;5.090;2023-03-23T07:49:12;11.10;99.90
13606;DHT22;6874;52.084;5.090;2023-03-23T07:51:38;11.10;99.90
13606;DHT22;6874;52.084;5.090;2023-03-23T07:54:05;11.10;99.90
13606;DHT22;6874;52.084;5.090;2023-03-23T07:56:33;11.10;99.90
13606;DHT22;6874;52.084;5.090;2023-03-23T07:58:58;11.10;99.90
13606;DHT22;6874;52.084;5.090;2023-03-23T08:01:24;11.20;99.90
13606;DHT22;6874;52.084;5.090;2023-03-23T08:03:50;11.20;99.90
13606;DHT22;6874;52.084;5.090;2023-03-23T08:06:17;11.10;99.90
13606;DHT22;6874;52.084;5.090;2023-03-23T08:08:43;11.20;99.90
13606;DHT22;6874;52.084;5.090;2023-03-23T08:11:08;11.20;99.90
13606;DHT22;6874;52.084;5.090;2023-03-23T08:13:34;11.20;99.90
13606;DHT22;6874;52.084;5.090;2023-03-23T08:16:01;11.20;99.90
13606;DHT22;6874;52.084;5.090;2023-03-23T08:18:30;11.20;99.90
13606;DHT22;6874;52.084;5.090;2023-03-23T08:20:56;11.30;99.90
13606;DHT22;6874;52.084;5.090;2023-03-23T08:23:22;11.20;99.90
13606;DHT22;6874;52.084;5.090;2023-03-23T08:25:48;11.40;99.90
13606;DHT22;6874;52.084;5.090;2023-03-23T08:28:14;11.30;99.90
13606;DHT22;6874;52.084;5.090;2023-03-23T08:30:40;11.30;99.90
13606;DHT22;6874;52.084;5.090;2023-03-23T08:33:07;11.30;99.90
13606;DHT22;6874;52.084;5.090;2023-03-23T08:35:34;11.40;99.90
13606;DHT22;6874;52.084;5.090;2023-03-23T08:37:59;11.40;99.90
13606;DHT22;6874;52.084;5.090;2023-03-23T08:40:26;11.40;99.90
13606;DHT22;6874;52.084;5.090;2023-03-23T08:42:53;11.40;99.90
13606;DHT22;6874;52.084;5.090;2023-03-23T08:45:23;11.50;99.90
13606;DHT22;6874;52.084;5.090;2023-03-23T08:47:50;11.50;99.90
13606;DHT22;6874;52.084;5.090;2023-03-23T08:50:22;11.40;99.90
13606;DHT22;6874;52.084;5.090;2023-03-23T08:52:48;11.40;99.90
13606;DHT22;6874;52.084;5.090;2023-03-23T08:55:16;11.50;99.90
13606;DHT22;6874;52.084;5.090;2023-03-23T08:57:43;11.50;99.90
13606;DHT22;6874;52.084;5.090;2023-03-23T09:00:15;11.60;99.90
13606;DHT22;6874;52.084;5.090;2023-03-23T09:02:45;11.50;99.90
13606;DHT22;6874;52.084;5.090;2023-03-23T09:05:11;11.60;99.90
13606;DHT22;6874;52.084;5.090;2023-03-23T09:07:40;11.50;99.90
13606;DHT22;6874;52.084;5.090;2023-03-23T09:10:07;11.60;99.90
13606;DHT22;6874;52.084;5.090;2023-03-23T09:12:33;11.60;99.90
13606;DHT22;6874;52.084;5.090;2023-03-23T09:15:00;11.60;99.90
13606;DHT22;6874;52.084;5.090;2023-03-23T09:17:30;11.60;99.90
13606;DHT22;6874;52.084;5.090;2023-03-23T09:19:56;11.70;99.90
13606;DHT22;6874;52.084;5.090;2023-03-23T09:22:22;11.60;99.90
13606;DHT22;6874;52.084;5.090;2023-03-23T09:24:49;11.60;99.90
13606;DHT22;6874;52.084;5.090;2023-03-23T09:27:17;11.70;99.90
13606;DHT22;6874;52.084;5.090;2023-03-23T09:29:42;11.60;99.90
13606;DHT22;6874;52.084;5.090;2023-03-23T09:32:09;11.60;99.90
13606;DHT22;6874;52.084;5.090;2023-03-23T09:34:35;11.70;99.90
13606;DHT22;6874;52.084;5.090;2023-03-23T09:37:03;11.70;99.90
13606;DHT22;6874;52.084;5.090;2023-03-23T09:39:30;11.70;99.90
13606;DHT22;6874;52.084;5.090;2023-03-23T09:42:05;11.70;99.90
13606;DHT22;6874;52.084;5.090;2023-03-23T09:44:50;11.70;99.90
13606;DHT22;6874;52.084;5.090;2023-03-23T09:47:44;11.70;99.90
13606;DHT22;6874;52.084;5.090;2023-03-23T09:50:19;11.70;99.90
13606;DHT22;6874;52.084;5.090;2023-03-23T09:52:55;11.70;99.90
13606;DHT22;6874;52.084;5.090;2023-03-23T09:55:22;11.80;99.90
13606;DHT22;6874;52.084;5.090;2023-03-23T09:58:09;11.80;99.90
13606;DHT22;6874;52.084;5.090;2023-03-23T10:01:16;11.90;99.90
13606;DHT22;6874;52.084;5.090;2023-03-23T10:03:44;11.90;99.90
13606;DHT22;6874;52.084;5.090;2023-03-23T10:06:13;12.00;99.90
13606;DHT22;6874;52.084;5.090;2023-03-23T10:08:47;12.00;99.90
13606;DHT22;6874;52.084;5.090;2023-03-23T10:14:17;12.10;99.90
13606;DHT22;6874;52.084;5.090;2023-03-23T10:17:27;12.10;99.90
13606;DHT22;6874;52.084;5.090;2023-03-23T10:25:41;12.20;99.90
13606;DHT22;6874;52.084;5.090;2023-03-23T10:28:12;12.20;99.90
13606;DHT22;6874;52.084;5.090;2023-03-23T10:30:43;12.20;99.90
13606;DHT22;6874;52.084;5.090;2023-03-23T10:33:17;12.20;99.90
13606;DHT22;6874;52.084;5.090;2023-03-23T10:38:24;12.30;99.90
13606;DHT22;6874;52.084;5.090;2023-03-23T10:41:01;12.30;99.90
13606;DHT22;6874;52.084;5.090;2023-03-23T10:43:28;12.30;99.90
13606;DHT22;6874;52.084;5.090;2023-03-23T10:46:02;12.30;99.90
13606;DHT22;6874;52.084;5.090;2023-03-23T10:48:31;12.40;99.90
13606;DHT22;6874;52.084;5.090;2023-03-23T10:51:01;12.40;99.90
13606;DHT22;6874;52.084;5.090;2023-03-23T10:53:30;12.40;99.90
13606;DHT22;6874;52.084;5.090;2023-03-23T10:55:57;12.40;99.90
13606;DHT22;6874;52.084;5.090;2023-03-23T10:58:29;12.50;99.90
13606;DHT22;6874;52.084;5.090;2023-03-23T11:00:57;12.50;99.90
13606;DHT22;6874;52.084;5.090;2023-03-23T11:06:07;12.70;99.90
13606;DHT22;6874;52.084;5.090;2023-03-23T11:08:55;12.80;99.90
13606;DHT22;6874;52.084;5.090;2023-03-23T11:11:36;13.00;99.90
13606;DHT22;6874;52.084;5.090;2023-03-23T11:16:43;13.20;99.90
13606;DHT22;6874;52.084;5.090;2023-03-23T11:19:22;13.30;99.90
13606;DHT22;6874;52.084;5.090;2023-03-23T11:21:51;13.40;99.90
13606;DHT22;6874;52.084;5.090;2023-03-23T11:24:18;13.40;99.90
13606;DHT22;6874;52.084;5.090;2023-03-23T11:26:44;13.50;99.90
13606;DHT22;6874;52.084;5.090;2023-03-23T11:29:23;13.60;99.90
13606;DHT22;6874;52.084;5.090;2023-03-23T11:34:36;13.80;99.90
13606;DHT22;6874;52.084;5.090;2023-03-23T11:37:12;13.90;99.90
13606;DHT22;6874;52.084;5.090;2023-03-23T11:39:59;14.00;99.90
13606;DHT22;6874;52.084;5.090;2023-03-23T11:42:46;14.00;99.90
13606;DHT22;6874;52.084;5.090;2023-03-23T11:45:20;14.10;99.90
13606;DHT22;6874;52.084;5.090;2023-03-23T11:50:54;14.00;99.90
13606;DHT22;6874;52.084;5.090;2023-03-23T11:53:42;14.00;99.90
13606;DHT22;6874;52.084;5.090;2023-03-23T11:56:25;14.00;99.90
13606;DHT22;6874;52.084;5.090;2023-03-23T11:58:52;14.00;99.90
13606;DHT22;6874;52.084;5.090;2023-03-23T12:04:39;13.90;99.90
13606;DHT22;6874;52.084;5.090;2023-03-23T12:07:12;13.80;99.90
13606;DHT22;6874;52.084;5.090;2023-03-23T12:10:42;13.90;99.90
13606;DHT22;6874;52.084;5.090;2023-03-23T12:18:09;13.80;99.90
13606;DHT22;6874;52.084;5.090;2023-03-23T12:23:45;13.90;99.90
13606;DHT22;6874;52.084;5.090;2023-03-23T12:26:14;13.90;99.90
13606;DHT22;6874;52.084;5.090;2023-03-23T12:33:52;14.00;99.90
13606;DHT22;6874;52.084;5.090;2023-03-23T12:36:47;14.00;99.90
13606;DHT22;6874;52.084;5.090;2023-03-23T12:45:01;14.10;99.90
13606;DHT22;6874;52.084;5.090;2023-03-23T12:47:34;14.10;99.90
13606;DHT22;6874;52.084;5.090;2023-03-23T12:50:13;14.10;99.90
13606;DHT22;6874;52.084;5.090;2023-03-23T12:52:59;14.10;99.90
13606;DHT22;6874;52.084;5.090;2023-03-23T12:55:36;14.20;99.90
13606;DHT22;6874;52.084;5.090;2023-03-23T12:58:16;14.20;99.90
13606;DHT22;6874;52.084;5.090;2023-03-23T13:06:18;14.20;99.90
13606;DHT22;6874;52.084;5.090;2023-03-23T13:11:54;14.20;99.90
13606;DHT22;6874;52.084;5.090;2023-03-23T13:25:03;14.30;99.90
13606;DHT22;6874;52.084;5.090;2023-03-23T13:27:29;14.40;99.90
13606;DHT22;6874;52.084;5.090;2023-03-23T13:29:58;14.40;99.90
13606;DHT22;6874;52.084;5.090;2023-03-23T13:32:37;14.40;99.90
13606;DHT22;6874;52.084;5.090;2023-03-23T13:35:05;14.50;99.90
13606;DHT22;6874;52.084;5.090;2023-03-23T13:37:45;14.50;99.90
13606;DHT22;6874;52.084;5.090;2023-03-23T13:42:48;14.60;99.90
13606;DHT22;6874;52.084;5.090;2023-03-23T13:45:21;14.50;99.90
13606;DHT22;6874;52.084;5.090;2023-03-23T13:47:48;14.60;99.90
13606;DHT22;6874;52.084;5.090;2023-03-23T13:52:51;14.70;99.90
13606;DHT22;6874;52.084;5.090;2023-03-23T14:10:41;14.60;99.90
13606;DHT22;6874;52.084;5.090;2023-03-23T14:13:20;14.60;99.90
13606;DHT22;6874;52.084;5.090;2023-03-23T14:15:59;14.60;99.90
13606;DHT22;6874;52.084;5.090;2023-03-23T14:19:13;14.60;99.90
13606;DHT22;6874;52.084;5.090;2023-03-23T14:21:32;14.60;99.90
13606;DHT22;6874;52.084;5.090;2023-03-23T14:24:03;14.60;99.90
13606;DHT22;6874;52.084;5.090;2023-03-23T14:26:29;14.60;99.90
13606;DHT22;6874;52.084;5.090;2023-03-23T14:28:59;14.70;99.90
13606;DHT22;6874;52.084;5.090;2023-03-23T14:31:26;14.70;99.90
13606;DHT22;6874;52.084;5.090;2023-03-23T14:33:54;14.70;99.90
13606;DHT22;6874;52.084;5.090;2023-03-23T14:36:28;14.70;99.90
13606;DHT22;6874;52.084;5.090;2023-03-23T14:39:02;14.80;99.90
13606;DHT22;6874;52.084;5.090;2023-03-23T14:41:31;14.80;99.90
13606;DHT22;6874;52.084;5.090;2023-03-23T14:43:58;14.90;99.90
13606;DHT22;6874;52.084;5.090;2023-03-23T14:46:25;14.90;99.90
13606;DHT22;6874;52.084;5.090;2023-03-23T14:48:51;15.00;99.90
13606;DHT22;6874;52.084;5.090;2023-03-23T14:51:19;15.00;99.90
13606;DHT22;6874;52.084;5.090;2023-03-23T14:53:45;15.00;99.90
13606;DHT22;6874;52.084;5.090;2023-03-23T14:56:15;15.10;99.90
13606;DHT22;6874;52.084;5.090;2023-03-23T14:59:04;15.10;99.90
13606;DHT22;6874;52.084;5.090;2023-03-23T15:01:33;15.20;99.90
13606;DHT22;6874;52.084;5.090;2023-03-23T15:04:04;15.20;99.90
13606;DHT22;6874;52.084;5.090;2023-03-23T15:06:33;15.30;99.90
13606;DHT22;6874;52.084;5.090;2023-03-23T15:09:04;15.30;99.90
13606;DHT22;6874;52.084;5.090;2023-03-23T15:11:36;15.30;99.90
13606;DHT22;6874;52.084;5.090;2023-03-23T15:14:18;15.50;99.90
13606;DHT22;6874;52.084;5.090;2023-03-23T15:16:47;15.40;99.90
13606;DHT22;6874;52.084;5.090;2023-03-23T15:19:23;15.40;99.90
13606;DHT22;6874;52.084;5.090;2023-03-23T15:22:03;15.40;99.90
13606;DHT22;6874;52.084;5.090;2023-03-23T15:24:33;15.40;99.90
13606;DHT22;6874;52.084;5.090;2023-03-23T15:27:15;15.50;99.90
13606;DHT22;6874;52.084;5.090;2023-03-23T15:29:58;15.40;99.90
13606;DHT22;6874;52.084;5.090;2023-03-23T15:32:36;15.50;99.90
13606;DHT22;6874;52.084;5.090;2023-03-23T15:35:09;15.50;99.90
13606;DHT22;6874;52.084;5.090;2023-03-23T15:37:51;15.50;99.90
13606;DHT22;6874;52.084;5.090;2023-03-23T15:40:20;15.40;99.90
13606;DHT22;6874;52.084;5.090;2023-03-23T15:42:47;15.50;99.90
13606;DHT22;6874;52.084;5.090;2023-03-23T15:52:50;15.40;99.90
13606;DHT22;6874;52.084;5.090;2023-03-23T15:55:28;15.40;99.90
13606;DHT22;6874;52.084;5.090;2023-03-23T15:57:56;15.40;99.90
13606;DHT22;6874;52.084;5.090;2023-03-23T16:00:24;15.30;99.90
13606;DHT22;6874;52.084;5.090;2023-03-23T16:02:56;15.40;99.90
13606;DHT22;6874;52.084;5.090;2023-03-23T16:05:22;15.30;99.90
13606;DHT22;6874;52.084;5.090;2023-03-23T16:07:49;15.30;99.90
13606;DHT22;6874;52.084;5.090;2023-03-23T16:10:20;15.40;99.90
13606;DHT22;6874;52.084;5.090;2023-03-23T16:12:46;15.40;99.90
13606;DHT22;6874;52.084;5.090;2023-03-23T16:15:13;15.30;99.90
13606;DHT22;6874;52.084;5.090;2023-03-23T16:17:39;15.30;99.90
13606;DHT22;6874;52.084;5.090;2023-03-23T16:20:15;15.30;99.90
13606;DHT22;6874;52.084;5.090;2023-03-23T16:22:41;15.30;99.90
13606;DHT22;6874;52.084;5.090;2023-03-23T16:25:08;15.40;99.90
13606;DHT22;6874;52.084;5.090;2023-03-23T16:27:34;15.30;99.90
13606;DHT22;6874;52.084;5.090;2023-03-23T16:29:59;15.30;99.90
13606;DHT22;6874;52.084;5.090;2023-03-23T16:32:28;15.30;99.90
13606;DHT22;6874;52.084;5.090;2023-03-23T16:34:53;15.30;99.90
13606;DHT22;6874;52.084;5.090;2023-03-23T16:37:19;15.20;99.90
13606;DHT22;6874;52.084;5.090;2023-03-23T16:39:46;15.20;99.90
13606;DHT22;6874;52.084;5.090;2023-03-23T16:42:11;15.20;99.90
13606;DHT22;6874;52.084;5.090;2023-03-23T16:44:37;15.20;99.90
13606;DHT22;6874;52.084;5.090;2023-03-23T16:47:02;15.20;99.90
13606;DHT22;6874;52.084;5.090;2023-03-23T16:49:28;15.20;99.90
13606;DHT22;6874;52.084;5.090;2023-03-23T16:51:53;15.10;99.90
13606;DHT22;6874;52.084;5.090;2023-03-23T16:54:19;15.10;99.90
13606;DHT22;6874;52.084;5.090;2023-03-23T16:56:45;15.10;99.90
13606;DHT22;6874;52.084;5.090;2023-03-23T16:59:13;15.00;99.90
13606;DHT22;6874;52.084;5.090;2023-03-23T17:01:38;15.00;99.90
13606;DHT22;6874;52.084;5.090;2023-03-23T17:04:08;15.00;99.90
13606;DHT22;6874;52.084;5.090;2023-03-23T17:06:33;15.00;99.90
13606;DHT22;6874;52.084;5.090;2023-03-23T17:08:59;15.00;99.90
13606;DHT22;6874;52.084;5.090;2023-03-23T17:11:25;15.00;99.90
13606;DHT22;6874;52.084;5.090;2023-03-23T17:13:50;15.00;99.90
13606;DHT22;6874;52.084;5.090;2023-03-23T17:16:16;15.00;99.90
13606;DHT22;6874;52.084;5.090;2023-03-23T17:18:42;14.90;99.90
13606;DHT22;6874;52.084;5.090;2023-03-23T17:21:07;14.90;99.90
13606;DHT22;6874;52.084;5.090;2023-03-23T17:23:33;14.90;99.90
13606;DHT22;6874;52.084;5.090;2023-03-23T17:25:58;14.90;99.90
13606;DHT22;6874;52.084;5.090;2023-03-23T17:28:24;14.90;99.90
13606;DHT22;6874;52.084;5.090;2023-03-23T17:30:53;14.80;99.90
13606;DHT22;6874;52.084;5.090;2023-03-23T17:33:19;14.80;99.90
13606;DHT22;6874;52.084;5.090;2023-03-23T17:35:45;14.80;99.90
13606;DHT22;6874;52.084;5.090;2023-03-23T17:38:11;14.70;99.90
13606;DHT22;6874;52.084;5.090;2023-03-23T17:40:37;14.70;99.90
13606;DHT22;6874;52.084;5.090;2023-03-23T17:43:04;14.80;99.90
13606;DHT22;6874;52.084;5.090;2023-03-23T17:45:29;14.70;99.90